sensor_id;sensor_type;location;lat;lon;timestamp;temperature;humidity
48666;DHT22;34452;50.796;4.994;2023-08-24T00:01:44;19.60;99.90
48666;DHT22;34452;50.796;4.994;2023-08-24T00:04:10;19.50;99.90
48666;DHT22;34452;50.796;4.994;2023-08-24T00:06:36;19.40;99.90
48666;DHT22;34452;50.796;4.994;2023-08-24T00:09:02;19.30;99.90
48666;DHT22;34452;50.796;4.994;2023-08-24T00:11:30;19.30;99.90
48666;DHT22;34452;50.796;4.994;2023-08-24T00:13:56;19.30;99.90
48666;DHT22;34452;50.796;4.994;2023-08-24T00:16:21;19.30;99.90
48666;DHT22;34452;50.796;4.994;2023-08-24T00:18:47;19.30;99.90
48666;DHT22;34452;50.796;4.994;2023-08-24T00:21:13;19.30;99.90
48666;DHT22;34452;50.796;4.994;2023-08-24T00:23:42;19.20;99.90
48666;DHT22;34452;50.796;4.994;2023-08-24T00:26:09;19.20;99.90
48666;DHT22;34452;50.796;4.994;2023-08-24T00:28:35;19.20;99.90
48666;DHT22;34452;50.796;4.994;2023-08-24T00:31:00;19.30;99.90
48666;DHT22;34452;50.796;4.994;2023-08-24T00:33:26;19.40;99.90
48666;DHT22;34452;50.796;4.994;2023-08-24T00:35:52;19.30;99.90
48666;DHT22;34452;50.796;4.994;2023-08-24T00:38:17;19.20;99.90
48666;DHT22;34452;50.796;4.994;2023-08-24T00:40:43;19.10;99.90
48666;DHT22;34452;50.796;4.994;2023-08-24T00:43:09;19.00;99.90
48666;DHT22;34452;50.796;4.994;2023-08-24T00:45:35;18.90;99.90
48666;DHT22;34452;50.796;4.994;2023-08-24T00:48:01;18.90;99.90
48666;DHT22;34452;50.796;4.994;2023-08-24T00:50:27;18.80;99.90
48666;DHT22;34452;50.796;4.994;2023-08-24T00:52:54;18.80;99.90
48666;DHT22;34452;50.796;4.994;2023-08-24T00:55:20;18.80;99.90
48666;DHT22;34452;50.796;4.994;2023-08-24T00:57:47;18.90;99.90
48666;DHT22;34452;50.796;4.994;2023-08-24T01:00:14;19.00;99.90
48666;DHT22;34452;50.796;4.994;2023-08-24T01:02:40;19.10;99.90
48666;DHT22;34452;50.796;4.994;2023-08-24T01:05:06;19.10;99.90
48666;DHT22;34452;50.796;4.994;2023-08-24T01:07:34;19.10;99.90
48666;DHT22;34452;50.796;4.994;2023-08-24T01:10:03;19.10;99.90
48666;DHT22;34452;50.796;4.994;2023-08-24T01:15:18;19.10;99.90
48666;DHT22;34452;50.796;4.994;2023-08-24T01:17:46;19.10;99.90
48666;DHT22;34452;50.796;4.994;2023-08-24T01:20:14;19.10;99.90
48666;DHT22;34452;50.796;4.994;2023-08-24T01:28:43;19.10;99.90
48666;DHT22;34452;50.796;4.994;2023-08-24T01:31:10;19.00;99.90
48666;DHT22;34452;50.796;4.994;2023-08-24T01:33:36;18.90;99.90
48666;DHT22;34452;50.796;4.994;2023-08-24T01:36:01;18.90;99.90
48666;DHT22;34452;50.796;4.994;2023-08-24T01:38:27;18.90;99.90
48666;DHT22;34452;50.796;4.994;2023-08-24T01:43:21;18.70;99.90
48666;DHT22;34452;50.796;4.994;2023-08-24T01:45:50;18.70;99.90
48666;DHT22;34452;50.796;4.994;2023-08-24T01:48:17;18.70;99.90
48666;DHT22;34452;50.796;4.994;2023-08-24T01:50:44;18.80;99.90
48666;DHT22;34452;50.796;4.994;2023-08-24T01:53:10;18.80;99.90
48666;DHT22;34452;50.796;4.994;2023-08-24T01:55:36;18.90;99.90
48666;DHT22;34452;50.796;4.994;2023-08-24T01:58:02;18.90;99.90
48666;DHT22;34452;50.796;4.994;2023-08-24T02:00:28;18.90;99.90
48666;DHT22;34452;50.796;4.994;2023-08-24T02:02:54;18.80;99.90
48666;DHT22;34452;50.796;4.994;2023-08-24T02:05:19;18.80;99.90
48666;DHT22;34452;50.796;4.994;2023-08-24T02:07:45;18.80;99.90
48666;DHT22;34452;50.796;4.994;2023-08-24T02:10:11;18.90;99.90
48666;DHT22;34452;50.796;4.994;2023-08-24T02:12:37;18.90;99.90
48666;DHT22;34452;50.796;4.994;2023-08-24T02:15:03;18.90;99.90
48666;DHT22;34452;50.796;4.994;2023-08-24T02:17:28;19.00;99.90
48666;DHT22;34452;50.796;4.994;2023-08-24T02:19:55;19.00;99.90
48666;DHT22;34452;50.796;4.994;2023-08-24T02:22:21;19.00;99.90
48666;DHT22;34452;50.796;4.994;2023-08-24T02:24:46;19.10;99.90
48666;DHT22;34452;50.796;4.994;2023-08-24T02:27:12;19.00;99.90
48666;DHT22;34452;50.796;4.994;2023-08-24T02:29:38;19.00;99.90
48666;DHT22;34452;50.796;4.994;2023-08-24T02:32:04;19.10;99.90
48666;DHT22;34452;50.796;4.994;2023-08-24T02:34:30;19.10;99.90
48666;DHT22;34452;50.796;4.994;2023-08-24T02:36:57;19.20;99.90
48666;DHT22;34452;50.796;4.994;2023-08-24T02:39:23;19.10;99.90
48666;DHT22;34452;50.796;4.994;2023-08-24T02:41:49;19.10;99.90
48666;DHT22;34452;50.796;4.994;2023-08-24T02:44:14;19.10;99.90
48666;DHT22;34452;50.796;4.994;2023-08-24T02:46:40;19.10;99.90
48666;DHT22;34452;50.796;4.994;2023-08-24T02:49:07;18.90;99.90
48666;DHT22;34452;50.796;4.994;2023-08-24T02:51:33;18.70;99.90
48666;DHT22;34452;50.796;4.994;2023-08-24T02:53:59;18.60;99.90
48666;DHT22;34452;50.796;4.994;2023-08-24T02:56:25;18.30;99.90
48666;DHT22;34452;50.796;4.994;2023-08-24T02:58:50;18.20;99.90
48666;DHT22;34452;50.796;4.994;2023-08-24T03:01:16;18.10;99.90
48666;DHT22;34452;50.796;4.994;2023-08-24T03:03:42;18.00;99.90
48666;DHT22;34452;50.796;4.994;2023-08-24T03:06:08;18.10;99.90
48666;DHT22;34452;50.796;4.994;2023-08-24T03:08:34;18.10;99.90
48666;DHT22;34452;50.796;4.994;2023-08-24T03:11:01;18.10;99.90
48666;DHT22;34452;50.796;4.994;2023-08-24T03:13:28;18.10;99.90
48666;DHT22;34452;50.796;4.994;2023-08-24T03:15:54;18.20;99.90
48666;DHT22;34452;50.796;4.994;2023-08-24T03:18:20;18.20;99.90
48666;DHT22;34452;50.796;4.994;2023-08-24T03:20:46;18.20;99.90
48666;DHT22;34452;50.796;4.994;2023-08-24T03:23:13;18.30;99.90
48666;DHT22;34452;50.796;4.994;2023-08-24T03:25:40;18.40;99.90
48666;DHT22;34452;50.796;4.994;2023-08-24T03:28:07;18.40;99.90
48666;DHT22;34452;50.796;4.994;2023-08-24T03:30:35;18.50;99.90
48666;DHT22;34452;50.796;4.994;2023-08-24T03:33:01;18.60;99.90
48666;DHT22;34452;50.796;4.994;2023-08-24T03:35:29;18.60;99.90
48666;DHT22;34452;50.796;4.994;2023-08-24T03:37:55;18.50;99.90
48666;DHT22;34452;50.796;4.994;2023-08-24T03:40:21;18.50;99.90
48666;DHT22;34452;50.796;4.994;2023-08-24T03:42:47;18.50;99.90
48666;DHT22;34452;50.796;4.994;2023-08-24T03:45:13;18.60;99.90
48666;DHT22;34452;50.796;4.994;2023-08-24T03:47:38;18.50;99.90
48666;DHT22;34452;50.796;4.994;2023-08-24T03:50:05;18.50;99.90
48666;DHT22;34452;50.796;4.994;2023-08-24T03:52:31;18.60;99.90
48666;DHT22;34452;50.796;4.994;2023-08-24T03:54:57;18.50;99.90
48666;DHT22;34452;50.796;4.994;2023-08-24T03:57:22;18.60;99.90
48666;DHT22;34452;50.796;4.994;2023-08-24T03:59:48;18.70;99.90
48666;DHT22;34452;50.796;4.994;2023-08-24T04:02:14;18.70;99.90
48666;DHT22;34452;50.796;4.994;2023-08-24T04:04:40;18.70;99.90
48666;DHT22;34452;50.796;4.994;2023-08-24T04:07:06;18.70;99.90
48666;DHT22;34452;50.796;4.994;2023-08-24T04:09:32;18.70;99.90
48666;DHT22;34452;50.796;4.994;2023-08-24T04:11:57;18.60;99.90
48666;DHT22;34452;50.796;4.994;2023-08-24T04:14:23;18.60;99.90
48666;DHT22;34452;50.796;4.994;2023-08-24T04:16:49;18.50;99.90
48666;DHT22;34452;50.796;4.994;2023-08-24T04:19:14;18.40;99.90
48666;DHT22;34452;50.796;4.994;2023-08-24T04:21:40;18.40;99.90
48666;DHT22;34452;50.796;4.994;2023-08-24T04:24:06;18.40;99.90
48666;DHT22;34452;50.796;4.994;2023-08-24T04:26:32;18.30;99.90
48666;DHT22;34452;50.796;4.994;2023-08-24T04:28:58;18.30;99.90
48666;DHT22;34452;50.796;4.994;2023-08-24T04:31:24;18.30;99.90
48666;DHT22;34452;50.796;4.994;2023-08-24T04:33:49;18.30;99.90
48666;DHT22;34452;50.796;4.994;2023-08-24T04:36:15;18.30;99.90
48666;DHT22;34452;50.796;4.994;2023-08-24T04:38:41;18.30;99.90
48666;DHT22;34452;50.796;4.994;2023-08-24T04:41:08;18.20;99.90
48666;DHT22;34452;50.796;4.994;2023-08-24T04:43:34;18.30;99.90
48666;DHT22;34452;50.796;4.994;2023-08-24T04:46:02;18.20;99.90
48666;DHT22;34452;50.796;4.994;2023-08-24T04:48:28;18.20;99.90
48666;DHT22;34452;50.796;4.994;2023-08-24T04:51:08;18.10;99.90
48666;DHT22;34452;50.796;4.994;2023-08-24T04:53:34;18.00;99.90
48666;DHT22;34452;50.796;4.994;2023-08-24T04:56:00;18.00;99.90
48666;DHT22;34452;50.796;4.994;2023-08-24T04:58:25;17.90;99.90
48666;DHT22;34452;50.796;4.994;2023-08-24T05:00:52;18.00;99.90
48666;DHT22;34452;50.796;4.994;2023-08-24T05:03:17;18.00;99.90
48666;DHT22;34452;50.796;4.994;2023-08-24T05:05:45;18.00;99.90
48666;DHT22;34452;50.796;4.994;2023-08-24T05:08:11;18.10;99.90
48666;DHT22;34452;50.796;4.994;2023-08-24T05:10:37;18.20;99.90
48666;DHT22;34452;50.796;4.994;2023-08-24T05:13:03;18.20;99.90
48666;DHT22;34452;50.796;4.994;2023-08-24T05:15:29;18.20;99.90
48666;DHT22;34452;50.796;4.994;2023-08-24T05:17:54;18.10;99.90
48666;DHT22;34452;50.796;4.994;2023-08-24T05:20:22;18.10;99.90
48666;DHT22;34452;50.796;4.994;2023-08-24T05:22:48;18.10;99.90
48666;DHT22;34452;50.796;4.994;2023-08-24T05:25:14;18.10;99.90
48666;DHT22;34452;50.796;4.994;2023-08-24T05:27:42;18.20;99.90
48666;DHT22;34452;50.796;4.994;2023-08-24T05:30:08;18.20;99.90
48666;DHT22;34452;50.796;4.994;2023-08-24T05:32:35;18.20;99.90
48666;DHT22;34452;50.796;4.994;2023-08-24T05:35:05;18.30;99.90
48666;DHT22;34452;50.796;4.994;2023-08-24T05:37:31;18.30;99.90
48666;DHT22;34452;50.796;4.994;2023-08-24T05:39:57;18.40;99.90
48666;DHT22;34452;50.796;4.994;2023-08-24T05:42:23;18.40;99.90
48666;DHT22;34452;50.796;4.994;2023-08-24T05:44:49;18.30;99.90
48666;DHT22;34452;50.796;4.994;2023-08-24T05:47:15;18.30;99.90
48666;DHT22;34452;50.796;4.994;2023-08-24T05:49:40;18.30;99.90
48666;DHT22;34452;50.796;4.994;2023-08-24T05:52:06;18.40;99.90
48666;DHT22;34452;50.796;4.994;2023-08-24T05:54:32;18.40;99.90
48666;DHT22;34452;50.796;4.994;2023-08-24T05:56:58;18.50;99.90
48666;DHT22;34452;50.796;4.994;2023-08-24T05:59:26;18.70;99.90
48666;DHT22;34452;50.796;4.994;2023-08-24T06:01:52;18.70;99.90
48666;DHT22;34452;50.796;4.994;2023-08-24T06:04:18;18.80;99.90
48666;DHT22;34452;50.796;4.994;2023-08-24T06:06:44;19.00;99.90
48666;DHT22;34452;50.796;4.994;2023-08-24T06:09:10;19.00;99.90
48666;DHT22;34452;50.796;4.994;2023-08-24T06:11:36;19.10;99.90
48666;DHT22;34452;50.796;4.994;2023-08-24T06:14:01;19.20;99.90
48666;DHT22;34452;50.796;4.994;2023-08-24T06:16:28;19.20;99.90
48666;DHT22;34452;50.796;4.994;2023-08-24T06:18:54;19.30;99.90
48666;DHT22;34452;50.796;4.994;2023-08-24T06:21:20;19.40;99.90
48666;DHT22;34452;50.796;4.994;2023-08-24T06:23:45;19.50;99.90
48666;DHT22;34452;50.796;4.994;2023-08-24T06:26:13;19.50;99.90
48666;DHT22;34452;50.796;4.994;2023-08-24T06:28:39;19.60;99.90
48666;DHT22;34452;50.796;4.994;2023-08-24T06:31:05;19.60;99.90
48666;DHT22;34452;50.796;4.994;2023-08-24T06:33:34;19.70;99.90
48666;DHT22;34452;50.796;4.994;2023-08-24T06:36:01;19.80;99.90
48666;DHT22;34452;50.796;4.994;2023-08-24T06:38:27;19.80;99.90
48666;DHT22;34452;50.796;4.994;2023-08-24T06:40:54;20.00;99.90
48666;DHT22;34452;50.796;4.994;2023-08-24T06:43:20;20.00;99.90
48666;DHT22;34452;50.796;4.994;2023-08-24T06:45:45;20.20;99.90
48666;DHT22;34452;50.796;4.994;2023-08-24T06:48:11;20.30;99.90
48666;DHT22;34452;50.796;4.994;2023-08-24T06:50:37;20.40;99.90
48666;DHT22;34452;50.796;4.994;2023-08-24T06:53:04;20.50;99.90
48666;DHT22;34452;50.796;4.994;2023-08-24T06:55:29;20.60;99.90
48666;DHT22;34452;50.796;4.994;2023-08-24T06:57:55;20.70;99.90
48666;DHT22;34452;50.796;4.994;2023-08-24T07:00:21;20.90;99.90
48666;DHT22;34452;50.796;4.994;2023-08-24T07:02:49;21.00;99.90
48666;DHT22;34452;50.796;4.994;2023-08-24T07:05:15;21.10;99.90
48666;DHT22;34452;50.796;4.994;2023-08-24T07:07:45;21.20;99.90
48666;DHT22;34452;50.796;4.994;2023-08-24T07:10:12;21.30;99.90
48666;DHT22;34452;50.796;4.994;2023-08-24T07:12:38;21.30;99.90
48666;DHT22;34452;50.796;4.994;2023-08-24T07:15:07;21.40;99.90
48666;DHT22;34452;50.796;4.994;2023-08-24T07:17:33;21.50;99.90
48666;DHT22;34452;50.796;4.994;2023-08-24T07:19:59;21.60;99.90
48666;DHT22;34452;50.796;4.994;2023-08-24T07:22:24;21.70;99.90
48666;DHT22;34452;50.796;4.994;2023-08-24T07:24:52;21.70;99.90
48666;DHT22;34452;50.796;4.994;2023-08-24T07:27:18;21.80;99.90
48666;DHT22;34452;50.796;4.994;2023-08-24T07:29:44;21.90;99.90
48666;DHT22;34452;50.796;4.994;2023-08-24T07:32:09;22.00;99.90
48666;DHT22;34452;50.796;4.994;2023-08-24T07:34:35;22.00;99.90
48666;DHT22;34452;50.796;4.994;2023-08-24T07:37:01;22.10;99.90
48666;DHT22;34452;50.796;4.994;2023-08-24T07:39:27;22.20;99.90
48666;DHT22;34452;50.796;4.994;2023-08-24T07:41:53;22.30;99.90
48666;DHT22;34452;50.796;4.994;2023-08-24T07:44:19;22.40;99.90
48666;DHT22;34452;50.796;4.994;2023-08-24T07:46:47;22.40;99.90
48666;DHT22;34452;50.796;4.994;2023-08-24T07:49:12;22.50;99.90
48666;DHT22;34452;50.796;4.994;2023-08-24T07:51:38;22.60;99.90
48666;DHT22;34452;50.796;4.994;2023-08-24T07:54:04;22.60;99.90
48666;DHT22;34452;50.796;4.994;2023-08-24T07:56:32;22.70;99.90
48666;DHT22;34452;50.796;4.994;2023-08-24T07:58:58;22.80;99.90
48666;DHT22;34452;50.796;4.994;2023-08-24T08:01:24;22.90;99.90
48666;DHT22;34452;50.796;4.994;2023-08-24T08:03:49;22.90;99.90
48666;DHT22;34452;50.796;4.994;2023-08-24T08:06:15;23.00;99.90
48666;DHT22;34452;50.796;4.994;2023-08-24T08:08:41;23.00;99.90
48666;DHT22;34452;50.796;4.994;2023-08-24T08:11:07;23.10;99.90
48666;DHT22;34452;50.796;4.994;2023-08-24T08:13:33;23.20;99.90
48666;DHT22;34452;50.796;4.994;2023-08-24T08:16:10;23.30;99.90
48666;DHT22;34452;50.796;4.994;2023-08-24T08:18:37;23.40;99.90
48666;DHT22;34452;50.796;4.994;2023-08-24T08:21:21;23.40;99.90
48666;DHT22;34452;50.796;4.994;2023-08-24T08:23:49;23.50;99.90
48666;DHT22;34452;50.796;4.994;2023-08-24T08:26:15;23.60;99.90
48666;DHT22;34452;50.796;4.994;2023-08-24T08:28:41;23.60;99.90
48666;DHT22;34452;50.796;4.994;2023-08-24T08:31:06;23.60;99.90
48666;DHT22;34452;50.796;4.994;2023-08-24T08:33:32;23.60;99.90
48666;DHT22;34452;50.796;4.994;2023-08-24T08:35:58;23.60;99.90
48666;DHT22;34452;50.796;4.994;2023-08-24T08:38:24;23.70;99.90
48666;DHT22;34452;50.796;4.994;2023-08-24T08:40:54;23.80;99.90
48666;DHT22;34452;50.796;4.994;2023-08-24T08:43:22;23.90;99.90
48666;DHT22;34452;50.796;4.994;2023-08-24T08:45:50;23.90;99.90
48666;DHT22;34452;50.796;4.994;2023-08-24T08:48:17;23.90;99.90
48666;DHT22;34452;50.796;4.994;2023-08-24T08:50:44;24.00;99.90
48666;DHT22;34452;50.796;4.994;2023-08-24T08:53:09;24.10;99.90
48666;DHT22;34452;50.796;4.994;2023-08-24T08:55:35;24.10;99.90
48666;DHT22;34452;50.796;4.994;2023-08-24T08:58:02;24.20;99.90
48666;DHT22;34452;50.796;4.994;2023-08-24T09:00:29;24.30;99.90
48666;DHT22;34452;50.796;4.994;2023-08-24T09:02:57;24.30;99.90
48666;DHT22;34452;50.796;4.994;2023-08-24T09:05:23;24.40;99.90
48666;DHT22;34452;50.796;4.994;2023-08-24T09:07:52;24.40;99.90
48666;DHT22;34452;50.796;4.994;2023-08-24T09:10:19;24.40;99.90
48666;DHT22;34452;50.796;4.994;2023-08-24T09:12:44;24.50;99.90
48666;DHT22;34452;50.796;4.994;2023-08-24T09:15:10;24.60;99.90
48666;DHT22;34452;50.796;4.994;2023-08-24T09:17:36;24.60;99.90
48666;DHT22;34452;50.796;4.994;2023-08-24T09:20:07;24.70;99.90
48666;DHT22;34452;50.796;4.994;2023-08-24T09:22:35;24.70;99.90
48666;DHT22;34452;50.796;4.994;2023-08-24T09:25:02;24.80;99.90
48666;DHT22;34452;50.796;4.994;2023-08-24T09:27:29;24.70;99.90
48666;DHT22;34452;50.796;4.994;2023-08-24T09:29:55;24.70;99.90
48666;DHT22;34452;50.796;4.994;2023-08-24T09:32:23;24.70;99.90
48666;DHT22;34452;50.796;4.994;2023-08-24T09:34:49;24.70;99.90
48666;DHT22;34452;50.796;4.994;2023-08-24T09:37:15;24.60;99.90
48666;DHT22;34452;50.796;4.994;2023-08-24T09:39:42;24.50;99.90
48666;DHT22;34452;50.796;4.994;2023-08-24T09:42:08;24.50;99.90
48666;DHT22;34452;50.796;4.994;2023-08-24T09:44:34;24.50;99.90
48666;DHT22;34452;50.796;4.994;2023-08-24T09:46:59;24.40;99.90
48666;DHT22;34452;50.796;4.994;2023-08-24T09:49:25;24.40;99.90
48666;DHT22;34452;50.796;4.994;2023-08-24T09:51:56;24.40;99.90
48666;DHT22;34452;50.796;4.994;2023-08-24T09:54:27;24.30;99.90
48666;DHT22;34452;50.796;4.994;2023-08-24T09:56:55;24.30;99.90
48666;DHT22;34452;50.796;4.994;2023-08-24T09:59:26;24.30;99.90
48666;DHT22;34452;50.796;4.994;2023-08-24T10:01:54;24.20;99.90
48666;DHT22;34452;50.796;4.994;2023-08-24T10:04:24;24.10;99.90
48666;DHT22;34452;50.796;4.994;2023-08-24T10:09:38;23.90;99.90
48666;DHT22;34452;50.796;4.994;2023-08-24T10:12:06;23.70;99.90
48666;DHT22;34452;50.796;4.994;2023-08-24T10:14:40;23.40;99.90
48666;DHT22;34452;50.796;4.994;2023-08-24T10:17:09;23.20;99.90
48666;DHT22;34452;50.796;4.994;2023-08-24T10:19:36;22.60;99.90
48666;DHT22;34452;50.796;4.994;2023-08-24T10:22:03;22.30;99.90
48666;DHT22;34452;50.796;4.994;2023-08-24T10:24:31;22.20;99.90
48666;DHT22;34452;50.796;4.994;2023-08-24T10:26:58;22.10;99.90
48666;DHT22;34452;50.796;4.994;2023-08-24T10:29:27;22.00;99.90
48666;DHT22;34452;50.796;4.994;2023-08-24T10:31:54;21.90;99.90
48666;DHT22;34452;50.796;4.994;2023-08-24T10:34:20;21.80;99.90
48666;DHT22;34452;50.796;4.994;2023-08-24T10:36:48;21.70;99.90
48666;DHT22;34452;50.796;4.994;2023-08-24T10:39:14;21.80;99.90
48666;DHT22;34452;50.796;4.994;2023-08-24T10:41:52;21.70;99.90
48666;DHT22;34452;50.796;4.994;2023-08-24T10:44:34;21.70;99.90
48666;DHT22;34452;50.796;4.994;2023-08-24T10:47:13;21.70;99.90
48666;DHT22;34452;50.796;4.994;2023-08-24T10:49:42;21.70;99.90
48666;DHT22;34452;50.796;4.994;2023-08-24T10:55:23;21.60;99.90
48666;DHT22;34452;50.796;4.994;2023-08-24T10:58:02;21.50;99.90
48666;DHT22;34452;50.796;4.994;2023-08-24T11:00:29;21.50;99.90
48666;DHT22;34452;50.796;4.994;2023-08-24T11:02:56;21.60;99.90
48666;DHT22;34452;50.796;4.994;2023-08-24T11:05:24;21.60;99.90
48666;DHT22;34452;50.796;4.994;2023-08-24T11:08:03;21.60;99.90
48666;DHT22;34452;50.796;4.994;2023-08-24T11:15:51;21.80;99.90
48666;DHT22;34452;50.796;4.994;2023-08-24T11:18:39;21.80;99.90
48666;DHT22;34452;50.796;4.994;2023-08-24T11:21:06;21.80;99.90
48666;DHT22;34452;50.796;4.994;2023-08-24T11:23:32;21.90;99.90
48666;DHT22;34452;50.796;4.994;2023-08-24T11:25:59;22.00;99.90
48666;DHT22;34452;50.796;4.994;2023-08-24T11:28:27;22.10;99.90
48666;DHT22;34452;50.796;4.994;2023-08-24T11:30:54;22.20;99.90
48666;DHT22;34452;50.796;4.994;2023-08-24T11:33:38;22.20;99.90
48666;DHT22;34452;50.796;4.994;2023-08-24T11:36:04;22.20;99.90
48666;DHT22;34452;50.796;4.994;2023-08-24T11:38:43;22.30;99.90
48666;DHT22;34452;50.796;4.994;2023-08-24T11:41:12;22.40;99.90
48666;DHT22;34452;50.796;4.994;2023-08-24T11:43:38;22.50;99.90
48666;DHT22;34452;50.796;4.994;2023-08-24T11:46:04;22.60;99.90
48666;DHT22;34452;50.796;4.994;2023-08-24T11:48:30;22.70;99.90
48666;DHT22;34452;50.796;4.994;2023-08-24T11:50:58;22.70;99.90
48666;DHT22;34452;50.796;4.994;2023-08-24T11:53:24;22.80;99.90
48666;DHT22;34452;50.796;4.994;2023-08-24T11:56:08;22.80;99.90
48666;DHT22;34452;50.796;4.994;2023-08-24T12:01:18;22.70;99.90
48666;DHT22;34452;50.796;4.994;2023-08-24T12:03:44;22.70;99.90
48666;DHT22;34452;50.796;4.994;2023-08-24T12:06:12;22.60;99.90
48666;DHT22;34452;50.796;4.994;2023-08-24T12:08:41;22.60;99.90
48666;DHT22;34452;50.796;4.994;2023-08-24T12:11:25;22.60;99.90
48666;DHT22;34452;50.796;4.994;2023-08-24T12:13:54;22.60;99.90
48666;DHT22;34452;50.796;4.994;2023-08-24T12:16:21;22.60;99.90
48666;DHT22;34452;50.796;4.994;2023-08-24T12:18:52;22.60;99.90
48666;DHT22;34452;50.796;4.994;2023-08-24T12:21:18;22.60;99.90
48666;DHT22;34452;50.796;4.994;2023-08-24T12:23:54;22.60;99.90
48666;DHT22;34452;50.796;4.994;2023-08-24T12:26:20;22.60;99.90
48666;DHT22;34452;50.796;4.994;2023-08-24T12:29:04;22.50;99.90
48666;DHT22;34452;50.796;4.994;2023-08-24T12:31:31;22.40;99.90
48666;DHT22;34452;50.796;4.994;2023-08-24T12:34:16;22.40;99.90
48666;DHT22;34452;50.796;4.994;2023-08-24T12:36:42;22.40;99.90
48666;DHT22;34452;50.796;4.994;2023-08-24T12:39:11;22.30;99.90
48666;DHT22;34452;50.796;4.994;2023-08-24T12:41:38;22.30;99.90
48666;DHT22;34452;50.796;4.994;2023-08-24T12:44:04;22.20;99.90
48666;DHT22;34452;50.796;4.994;2023-08-24T12:46:31;22.10;99.90
48666;DHT22;34452;50.796;4.994;2023-08-24T12:48:56;22.10;99.90
48666;DHT22;34452;50.796;4.994;2023-08-24T12:51:22;22.10;99.90
48666;DHT22;34452;50.796;4.994;2023-08-24T12:53:50;22.00;99.90
48666;DHT22;34452;50.796;4.994;2023-08-24T12:56:15;21.90;99.90
48666;DHT22;34452;50.796;4.994;2023-08-24T12:58:42;21.80;99.90
48666;DHT22;34452;50.796;4.994;2023-08-24T13:01:07;21.80;99.90
48666;DHT22;34452;50.796;4.994;2023-08-24T13:03:33;21.70;99.90
48666;DHT22;34452;50.796;4.994;2023-08-24T13:06:01;21.60;99.90
48666;DHT22;34452;50.796;4.994;2023-08-24T13:08:27;21.50;99.90
48666;DHT22;34452;50.796;4.994;2023-08-24T13:10:52;21.40;99.90
48666;DHT22;34452;50.796;4.994;2023-08-24T13:13:18;21.20;99.90
48666;DHT22;34452;50.796;4.994;2023-08-24T13:15:48;21.20;99.90
48666;DHT22;34452;50.796;4.994;2023-08-24T13:18:14;21.10;99.90
48666;DHT22;34452;50.796;4.994;2023-08-24T13:20:40;21.00;99.90
48666;DHT22;34452;50.796;4.994;2023-08-24T13:23:06;20.90;99.90
48666;DHT22;34452;50.796;4.994;2023-08-24T13:25:32;20.80;99.90
48666;DHT22;34452;50.796;4.994;2023-08-24T13:27:57;20.80;99.90
48666;DHT22;34452;50.796;4.994;2023-08-24T13:30:23;20.70;99.90
48666;DHT22;34452;50.796;4.994;2023-08-24T13:32:49;20.70;99.90
48666;DHT22;34452;50.796;4.994;2023-08-24T13:35:15;20.50;99.90
48666;DHT22;34452;50.796;4.994;2023-08-24T13:37:40;20.50;99.90
48666;DHT22;34452;50.796;4.994;2023-08-24T13:40:06;20.50;99.90
48666;DHT22;34452;50.796;4.994;2023-08-24T13:42:33;20.40;99.90
48666;DHT22;34452;50.796;4.994;2023-08-24T13:44:59;20.40;99.90
48666;DHT22;34452;50.796;4.994;2023-08-24T13:47:25;20.40;99.90
48666;DHT22;34452;50.796;4.994;2023-08-24T13:49:50;20.40;99.90
48666;DHT22;34452;50.796;4.994;2023-08-24T13:52:16;20.30;99.90
48666;DHT22;34452;50.796;4.994;2023-08-24T13:54:44;20.20;99.90
48666;DHT22;34452;50.796;4.994;2023-08-24T13:57:10;20.20;99.90
48666;DHT22;34452;50.796;4.994;2023-08-24T13:59:36;20.20;99.90
48666;DHT22;34452;50.796;4.994;2023-08-24T14:02:02;20.20;99.90
48666;DHT22;34452;50.796;4.994;2023-08-24T14:04:29;20.20;99.90
48666;DHT22;34452;50.796;4.994;2023-08-24T14:06:54;20.20;99.90
48666;DHT22;34452;50.796;4.994;2023-08-24T14:09:20;20.20;99.90
48666;DHT22;34452;50.796;4.994;2023-08-24T14:11:46;20.20;99.90
48666;DHT22;34452;50.796;4.994;2023-08-24T14:14:13;20.10;99.90
48666;DHT22;34452;50.796;4.994;2023-08-24T14:16:39;20.20;99.90
48666;DHT22;34452;50.796;4.994;2023-08-24T14:19:05;20.20;99.90
48666;DHT22;34452;50.796;4.994;2023-08-24T14:21:31;20.20;99.90
48666;DHT22;34452;50.796;4.994;2023-08-24T14:23:58;20.20;99.90
48666;DHT22;34452;50.796;4.994;2023-08-24T14:26:24;20.20;99.90
48666;DHT22;34452;50.796;4.994;2023-08-24T14:29:08;20.20;99.90
48666;DHT22;34452;50.796;4.994;2023-08-24T14:31:34;20.20;99.90
48666;DHT22;34452;50.796;4.994;2023-08-24T14:34:00;20.20;99.90
48666;DHT22;34452;50.796;4.994;2023-08-24T14:36:25;20.30;99.90
48666;DHT22;34452;50.796;4.994;2023-08-24T14:38:51;20.30;99.90
48666;DHT22;34452;50.796;4.994;2023-08-24T14:41:17;20.30;99.90
48666;DHT22;34452;50.796;4.994;2023-08-24T14:43:44;20.30;99.90
48666;DHT22;34452;50.796;4.994;2023-08-24T14:46:09;20.40;99.90
48666;DHT22;34452;50.796;4.994;2023-08-24T14:48:35;20.40;99.90
48666;DHT22;34452;50.796;4.994;2023-08-24T14:51:01;20.40;99.90
48666;DHT22;34452;50.796;4.994;2023-08-24T14:53:27;20.50;99.90
48666;DHT22;34452;50.796;4.994;2023-08-24T14:55:55;20.60;99.90
48666;DHT22;34452;50.796;4.994;2023-08-24T14:58:22;20.70;99.90
48666;DHT22;34452;50.796;4.994;2023-08-24T15:00:49;20.80;99.90
48666;DHT22;34452;50.796;4.994;2023-08-24T15:03:16;20.90;99.90
48666;DHT22;34452;50.796;4.994;2023-08-24T15:06:01;21.00;99.90
48666;DHT22;34452;50.796;4.994;2023-08-24T15:08:30;21.10;99.90
48666;DHT22;34452;50.796;4.994;2023-08-24T15:10:57;21.10;99.90
48666;DHT22;34452;50.796;4.994;2023-08-24T15:13:24;21.20;99.90
48666;DHT22;34452;50.796;4.994;2023-08-24T15:15:51;21.20;99.90
48666;DHT22;34452;50.796;4.994;2023-08-24T15:18:17;21.30;99.90
48666;DHT22;34452;50.796;4.994;2023-08-24T15:20:43;21.30;99.90
48666;DHT22;34452;50.796;4.994;2023-08-24T15:23:09;21.40;99.90
48666;DHT22;34452;50.796;4.994;2023-08-24T15:25:36;21.40;99.90
48666;DHT22;34452;50.796;4.994;2023-08-24T15:28:01;21.50;99.90
48666;DHT22;34452;50.796;4.994;2023-08-24T15:30:27;21.50;99.90
48666;DHT22;34452;50.796;4.994;2023-08-24T15:32:53;21.50;99.90
48666;DHT22;34452;50.796;4.994;2023-08-24T15:35:19;21.60;99.90
48666;DHT22;34452;50.796;4.994;2023-08-24T15:37:44;21.60;99.90
48666;DHT22;34452;50.796;4.994;2023-08-24T15:40:10;21.70;99.90
48666;DHT22;34452;50.796;4.994;2023-08-24T15:42:36;21.70;99.90
48666;DHT22;34452;50.796;4.994;2023-08-24T15:45:02;21.70;99.90
48666;DHT22;34452;50.796;4.994;2023-08-24T15:47:28;21.80;99.90
48666;DHT22;34452;50.796;4.994;2023-08-24T15:49:54;21.80;99.90
48666;DHT22;34452;50.796;4.994;2023-08-24T15:52:20;21.80;99.90
48666;DHT22;34452;50.796;4.994;2023-08-24T15:54:46;21.80;99.90